Terminal Aerodrome Forecast
Issued by NWS

Current Version | Previous Version | Graphics & Text | Print | Product List | Glossary On
Versions: 1 2 3 4 5 6 7 8 9 10 11 12 13 14 15 16 17 18 19 20 21 22 23 24 25
000
FTUS41 KILN 142320
TAFLCK
TAF
KLCK 142320Z 1500/1524 21008KT 2SM -DZ BR OVC004
      TEMPO 1500/1502 1SM -DZ BR
     FM150500 22008KT 3SM -DZ BR OVC006
     FM151000 23008KT P6SM OVC012
     FM151500 23010KT P6SM VCSH OVC015
     FM152100 23012KT 4SM -SHRA OVC012=

USA.gov is the U.S. government's official web portal to all federal, state and local government web resources and services.